createdAt,value
2024-01-20T00:00:48.221Z,28.20
2024-01-20T00:01:48.214Z,28.23
2024-01-20T00:02:48.234Z,28.22
2024-01-20T00:03:48.295Z,28.21
2024-01-20T00:04:48.363Z,28.20
2024-01-20T00:05:48.386Z,28.24
2024-01-20T00:06:48.417Z,28.23
2024-01-20T00:07:48.453Z,28.22
2024-01-20T00:57:55.557Z,28.14
2024-01-20T00:58:48.781Z,28.14
2024-01-20T00:59:48.743Z,28.14
2024-01-20T01:00:48.785Z,28.18
2024-01-20T01:01:48.784Z,28.11
2024-01-20T01:02:48.798Z,28.14
2024-01-20T01:03:48.771Z,28.14
2024-01-20T01:04:48.775Z,28.18
2024-01-20T01:05:48.816Z,28.10
2024-01-20T01:06:48.761Z,28.17
2024-01-20T01:07:48.766Z,28.15
2024-01-20T01:08:48.772Z,28.15
2024-01-20T01:09:48.763Z,28.14
2024-01-20T01:10:48.799Z,28.15
2024-01-20T01:11:48.777Z,28.15
2024-01-20T01:12:48.773Z,28.14
2024-01-20T01:13:48.818Z,28.11
2024-01-20T01:14:48.782Z,28.10
2024-01-20T01:15:48.792Z,28.11
2024-01-20T01:16:48.890Z,28.14
2024-01-20T01:17:48.936Z,28.12
2024-01-20T01:18:48.885Z,28.13
2024-01-20T01:19:48.947Z,28.11
2024-01-20T01:20:48.978Z,28.15
2024-01-20T01:21:49.024Z,28.10
2024-01-20T01:22:49.133Z,28.12
2024-01-20T01:23:49.161Z,28.11
2024-01-20T01:24:49.172Z,28.15
2024-01-20T01:25:49.306Z,28.12
2024-01-20T01:26:49.341Z,28.11
2024-01-20T01:27:49.318Z,28.12
2024-01-20T01:28:49.364Z,28.09
2024-01-20T01:29:49.473Z,28.12
2024-01-20T01:30:49.460Z,28.12
2024-01-20T01:31:49.590Z,28.08
2024-01-20T01:32:49.675Z,28.08
2024-01-20T01:33:49.711Z,28.14
2024-01-20T01:34:49.673Z,28.09
2024-01-20T01:35:49.716Z,28.10
2024-01-20T01:36:49.785Z,28.09
2024-01-20T01:37:49.828Z,28.10
2024-01-20T01:38:49.901Z,28.09
2024-01-20T01:39:49.943Z,28.08
2024-01-20T01:40:49.985Z,28.08
2024-01-20T01:41:50.017Z,28.06
2024-01-20T01:42:50.068Z,28.10
2024-01-20T01:43:50.119Z,28.05
2024-01-20T01:44:50.177Z,28.08
2024-01-20T01:45:50.230Z,28.07
2024-01-20T01:46:50.268Z,28.10
2024-01-20T01:47:50.367Z,28.14
2024-01-20T01:48:50.387Z,28.11
2024-01-20T01:49:50.436Z,28.10
2024-01-20T01:50:50.438Z,28.08
2024-01-20T01:51:50.499Z,28.09
2024-01-20T01:52:50.531Z,28.08
2024-01-20T01:53:50.623Z,28.07
2024-01-20T01:54:50.636Z,28.08
2024-01-20T01:55:50.683Z,28.07
2024-01-20T01:56:50.791Z,28.07
2024-01-20T01:57:50.783Z,28.08
2024-01-20T01:58:50.829Z,28.06
2024-01-20T01:59:50.906Z,28.08
2024-01-20T02:00:50.879Z,28.06
2024-01-20T02:01:50.886Z,28.06
2024-01-20T02:02:50.949Z,28.08
2024-01-20T02:03:50.970Z,28.09
2024-01-20T02:04:50.931Z,28.06
2024-01-20T02:05:50.945Z,28.03
2024-01-20T02:06:50.998Z,28.06
2024-01-20T02:07:50.970Z,28.04
2024-01-20T02:08:51.011Z,28.04
2024-01-20T02:09:51.010Z,28.02
2024-01-20T02:10:51.025Z,28.03
2024-01-20T02:11:51.095Z,28.03
2024-01-20T02:12:51.067Z,28.07
2024-01-20T02:13:51.088Z,28.03
2024-01-20T02:14:51.121Z,28.02
2024-01-20T02:15:51.161Z,27.99
2024-01-20T02:16:51.217Z,28.03
2024-01-20T02:17:51.380Z,28.04
2024-01-20T02:18:51.428Z,28.06
2024-01-20T02:19:51.368Z,28.04
2024-01-20T02:20:51.473Z,28.02
2024-01-20T02:21:51.453Z,28.04
2024-01-20T02:22:51.505Z,28.06
2024-01-20T02:23:51.592Z,28.03
2024-01-20T02:24:51.621Z,28.00
2024-01-20T02:25:51.720Z,27.99
2024-01-20T02:26:51.713Z,28.02
2024-01-20T02:27:51.814Z,27.97
2024-01-20T02:28:51.809Z,27.97
2024-01-20T02:29:52.008Z,28.00
2024-01-20T02:30:51.902Z,27.97
2024-01-20T02:31:51.954Z,27.99
2024-01-20T02:32:52.187Z,27.95
2024-01-20T02:33:52.158Z,27.97
2024-01-20T02:34:52.116Z,27.99
2024-01-20T02:35:52.179Z,27.99
2024-01-20T02:36:52.179Z,27.93
2024-01-20T02:37:52.243Z,27.96
2024-01-20T02:38:52.414Z,27.99
2024-01-20T02:39:52.336Z,27.94
2024-01-20T02:40:52.396Z,27.92
2024-01-20T02:41:52.453Z,28.00
2024-01-20T02:42:52.477Z,27.96
2024-01-20T02:43:52.537Z,27.95
2024-01-20T02:44:52.690Z,27.94
2024-01-20T02:45:52.613Z,27.93
2024-01-20T02:46:52.656Z,28.00
2024-01-20T02:47:52.864Z,27.95
2024-01-20T02:48:52.831Z,27.95
2024-01-20T02:49:52.878Z,27.94
2024-01-20T02:50:52.881Z,27.96
2024-01-20T02:51:52.883Z,27.93
2024-01-20T02:52:52.923Z,27.95
2024-01-20T02:53:53.007Z,27.92
2024-01-20T02:54:53.022Z,27.94
2024-01-20T02:55:53.079Z,27.96
2024-01-20T02:56:53.152Z,27.92
2024-01-20T02:57:53.185Z,27.92
2024-01-20T02:58:53.232Z,27.89
2024-01-20T02:59:53.334Z,27.90
2024-01-20T03:00:53.438Z,27.90
2024-01-20T03:01:53.396Z,27.93
2024-01-20T03:02:53.541Z,27.90
2024-01-20T03:03:53.542Z,27.94
2024-01-20T03:04:53.584Z,27.90
2024-01-20T03:05:53.710Z,27.90
2024-01-20T03:06:53.651Z,27.89
2024-01-20T03:07:53.700Z,27.89
2024-01-20T03:08:53.768Z,27.95
2024-01-20T03:09:53.789Z,27.88
2024-01-20T03:10:53.841Z,27.86
2024-01-20T03:11:53.913Z,27.89
2024-01-20T03:12:53.919Z,27.87
2024-01-20T03:13:53.972Z,27.90
2024-01-20T03:14:54.012Z,27.88
2024-01-20T03:15:54.066Z,27.92
2024-01-20T03:16:54.108Z,27.91
2024-01-20T03:17:54.221Z,27.92
2024-01-20T03:18:54.236Z,27.89
2024-01-20T03:19:54.276Z,27.93
2024-01-20T03:20:54.301Z,27.89
2024-01-20T03:21:54.366Z,27.88
2024-01-20T03:22:54.391Z,27.87
2024-01-20T03:23:54.465Z,27.87
2024-01-20T03:24:54.496Z,27.89
2024-01-20T03:25:54.565Z,27.92
2024-01-20T03:26:56.100Z,27.85
2024-01-20T03:27:54.800Z,27.89
2024-01-20T03:28:54.837Z,27.86
2024-01-20T03:29:54.916Z,27.83
2024-01-20T03:30:54.951Z,27.87
2024-01-20T03:31:54.991Z,27.85
2024-01-20T03:32:55.189Z,27.85
2024-01-20T03:33:55.187Z,27.82
2024-01-20T03:34:55.170Z,27.89
2024-01-20T03:35:55.216Z,27.90
2024-01-20T03:36:55.250Z,27.89
2024-01-20T03:37:55.320Z,27.85
2024-01-20T03:38:55.386Z,27.82
2024-01-20T03:39:55.402Z,27.86
2024-01-20T03:40:55.420Z,27.86
2024-01-20T03:41:55.479Z,27.85
2024-01-20T03:42:55.465Z,27.85
2024-01-20T03:43:55.486Z,27.89
2024-01-20T03:44:55.592Z,27.83
2024-01-20T03:45:55.527Z,27.82
2024-01-20T03:46:55.559Z,27.80
2024-01-20T03:47:55.629Z,27.85
2024-01-20T03:48:55.717Z,27.83
2024-01-20T03:49:55.673Z,27.83
2024-01-20T03:50:55.687Z,27.80
2024-01-20T03:51:55.634Z,27.85
2024-01-20T03:52:55.654Z,27.83
2024-01-20T03:53:55.731Z,27.86
2024-01-20T03:54:55.673Z,27.85
2024-01-20T03:55:55.700Z,27.83
2024-01-20T03:56:55.751Z,27.80
2024-01-20T03:57:55.741Z,27.83
2024-01-20T03:58:55.756Z,27.86
2024-01-20T03:59:55.793Z,27.83
2024-01-20T04:00:55.826Z,27.83
2024-01-20T04:01:55.802Z,27.83
2024-01-20T04:02:55.848Z,27.82
2024-01-20T04:03:55.987Z,27.80
2024-01-20T04:04:55.893Z,27.79
2024-01-20T04:05:55.979Z,27.76
2024-01-20T04:06:55.894Z,27.87
2024-01-20T04:07:55.896Z,27.79
2024-01-20T04:08:55.958Z,27.76
2024-01-20T04:09:55.960Z,27.82
2024-01-20T04:10:55.955Z,27.74
2024-01-20T04:11:55.990Z,27.76
2024-01-20T04:12:55.982Z,27.80
2024-01-20T04:13:56.003Z,27.79
2024-01-20T04:14:56.058Z,27.79
2024-01-20T04:15:56.606Z,27.80
2024-01-20T04:16:56.137Z,27.80
2024-01-20T04:17:56.385Z,27.78
2024-01-20T04:18:56.338Z,27.78
2024-01-20T04:19:56.381Z,27.78
2024-01-20T04:20:56.367Z,27.80
2024-01-20T04:21:56.382Z,27.79
2024-01-20T04:22:56.459Z,27.82
2024-01-20T04:23:56.532Z,27.78
2024-01-20T04:24:56.537Z,27.77
2024-01-20T04:25:56.613Z,27.79
2024-01-20T04:26:56.722Z,27.80
2024-01-20T04:27:56.699Z,27.76
2024-01-20T04:28:56.786Z,27.79
2024-01-20T04:29:56.866Z,27.78
2024-01-20T04:30:56.843Z,27.81
2024-01-20T04:31:56.887Z,27.75
2024-01-20T04:32:57.089Z,27.75
2024-01-20T04:33:57.023Z,27.76
2024-01-20T04:34:57.031Z,27.75
2024-01-20T04:35:57.101Z,27.74
2024-01-20T04:36:57.129Z,27.75
2024-01-20T04:37:57.183Z,27.80
2024-01-20T04:38:57.304Z,27.73
2024-01-20T04:39:57.271Z,27.71
2024-01-20T04:40:57.321Z,27.75
2024-01-20T04:42:04.535Z,27.72
2024-01-20T04:43:05.499Z,27.77
2024-01-20T04:44:05.498Z,27.73
2024-01-20T04:45:05.529Z,27.63
2024-01-20T04:46:05.498Z,27.71
2024-01-20T04:47:05.500Z,27.65
2024-01-20T04:48:05.645Z,27.69
2024-01-20T04:49:05.579Z,27.65
2024-01-20T04:50:05.533Z,27.66
2024-01-20T04:51:05.549Z,27.60
2024-01-20T04:52:05.524Z,27.61
2024-01-20T04:53:05.519Z,27.61
2024-01-20T04:54:05.541Z,27.64
2024-01-20T04:55:05.521Z,27.58
2024-01-20T04:56:05.512Z,27.58
2024-01-20T04:57:05.515Z,27.59
2024-01-20T04:58:05.570Z,27.57
2024-01-20T04:59:05.529Z,27.60
2024-01-20T05:00:05.540Z,27.60
2024-01-20T05:01:05.540Z,27.58
2024-01-20T05:02:05.538Z,27.60
2024-01-20T05:03:05.611Z,27.61
2024-01-20T05:04:05.663Z,27.54
2024-01-20T05:05:05.600Z,27.57
2024-01-20T05:06:05.623Z,27.57
2024-01-20T05:07:05.654Z,27.58
2024-01-20T05:08:05.527Z,27.58
2024-01-20T05:09:05.568Z,27.58
2024-01-20T05:10:05.530Z,27.60
2024-01-20T05:11:05.542Z,27.58
2024-01-20T05:12:05.575Z,27.57
2024-01-20T05:13:05.766Z,27.57
2024-01-20T05:14:05.569Z,27.57
2024-01-20T05:15:05.600Z,27.55
2024-01-20T05:16:05.575Z,27.56
2024-01-20T05:17:05.561Z,27.55
2024-01-20T05:18:05.680Z,27.50
2024-01-20T05:19:05.776Z,27.50
2024-01-20T05:20:05.649Z,27.55
2024-01-20T05:21:05.593Z,27.53
2024-01-20T05:22:05.558Z,27.53
2024-01-20T05:23:05.564Z,27.52
2024-01-20T05:24:05.602Z,27.56
2024-01-20T05:25:05.560Z,27.49
2024-01-20T05:26:05.555Z,27.52
2024-01-20T05:27:05.613Z,27.52
2024-01-20T05:28:05.560Z,27.52
2024-01-20T05:29:05.570Z,27.52
2024-01-20T05:30:05.756Z,27.57
2024-01-20T05:31:05.577Z,27.50
2024-01-20T05:32:05.578Z,27.50
2024-01-20T05:33:05.689Z,27.53
2024-01-20T05:34:05.938Z,27.49
2024-01-20T05:35:05.575Z,27.52
2024-01-20T05:36:05.592Z,27.52
2024-01-20T05:37:05.583Z,27.49
2024-01-20T05:38:05.577Z,27.49
2024-01-20T05:39:05.640Z,27.48
2024-01-20T05:40:05.603Z,27.49
2024-01-20T05:41:05.583Z,27.49
2024-01-20T05:42:05.614Z,27.49
2024-01-20T05:43:05.661Z,27.45
2024-01-20T05:44:05.579Z,27.47
2024-01-20T05:45:05.707Z,27.45
2024-01-20T05:46:05.619Z,27.46
2024-01-20T05:47:05.601Z,27.53
2024-01-20T05:48:05.639Z,27.48
2024-01-20T05:49:05.799Z,27.49
2024-01-20T05:50:05.613Z,27.49
2024-01-20T05:51:05.634Z,27.44
2024-01-20T05:52:05.609Z,27.45
2024-01-20T05:53:05.606Z,27.48
2024-01-20T05:54:05.621Z,27.45
2024-01-20T05:55:05.609Z,27.45
2024-01-20T05:56:05.602Z,27.44
2024-01-20T05:57:05.654Z,27.44
2024-01-20T05:58:05.623Z,27.46
2024-01-20T05:59:05.616Z,27.46
2024-01-20T06:00:05.682Z,27.41
2024-01-20T06:01:05.642Z,27.41
2024-01-20T06:02:05.669Z,27.43
2024-01-20T06:03:05.664Z,27.44
2024-01-20T06:04:05.663Z,27.40
2024-01-20T06:05:05.649Z,27.42
2024-01-20T06:06:05.691Z,27.40
2024-01-20T06:07:05.627Z,27.39
2024-01-20T06:08:05.624Z,27.39
2024-01-20T06:09:05.652Z,27.44
2024-01-20T06:10:05.654Z,27.43
2024-01-20T06:11:05.632Z,27.37
2024-01-20T06:12:05.641Z,27.14
2024-01-20T06:13:05.639Z,26.70
2024-01-20T06:14:05.659Z,26.23
2024-01-20T06:15:05.694Z,26.31
2024-01-20T06:16:05.639Z,26.42
2024-01-20T06:17:05.642Z,26.89
2024-01-20T06:18:05.807Z,27.03
2024-01-20T06:19:05.691Z,27.09
2024-01-20T06:20:05.663Z,27.20
2024-01-20T06:21:05.693Z,27.23
2024-01-20T06:22:05.673Z,27.20
2024-01-20T06:23:05.657Z,27.18
2024-01-20T06:24:05.698Z,27.06
2024-01-20T06:25:05.665Z,27.06
2024-01-20T06:26:05.679Z,27.02
2024-01-20T06:27:05.827Z,26.95
2024-01-20T06:28:05.753Z,27.02
2024-01-20T06:29:06.648Z,26.95
2024-01-20T06:30:05.868Z,26.93
2024-01-20T06:31:05.826Z,27.05
2024-01-20T06:32:05.855Z,27.02
2024-01-20T06:33:05.993Z,26.98
2024-01-20T06:34:06.005Z,27.05
2024-01-20T06:35:05.931Z,27.05
2024-01-20T06:36:05.983Z,26.85
2024-01-20T06:37:06.010Z,26.88
2024-01-20T06:38:06.024Z,27.00
2024-01-20T06:39:06.151Z,26.92
2024-01-20T06:40:06.057Z,26.98
2024-01-20T06:41:06.091Z,27.03
2024-01-20T06:42:06.149Z,26.95
2024-01-20T06:43:06.168Z,26.82
2024-01-20T06:44:06.189Z,26.96
2024-01-20T06:45:06.238Z,26.89
2024-01-20T06:46:06.244Z,26.84
2024-01-20T06:47:06.260Z,26.95
2024-01-20T06:48:06.611Z,26.92
2024-01-20T06:49:06.414Z,26.93
2024-01-20T06:50:06.379Z,26.98
2024-01-20T06:51:06.397Z,26.95
2024-01-20T06:52:06.410Z,26.89
2024-01-20T06:53:06.423Z,26.95
2024-01-20T06:54:06.449Z,27.02
2024-01-20T06:55:06.440Z,26.87
2024-01-20T06:56:06.449Z,26.98
2024-01-20T06:57:06.485Z,26.88
2024-01-20T06:58:06.479Z,26.85
2024-01-20T06:59:06.498Z,26.96
2024-01-20T07:00:06.522Z,27.06
2024-01-20T07:01:06.557Z,26.89
2024-01-20T07:02:06.535Z,26.92
2024-01-20T07:03:06.626Z,27.02
2024-01-20T07:04:06.712Z,26.95
2024-01-20T07:05:06.711Z,26.84
2024-01-20T07:06:06.733Z,26.92
2024-01-20T07:07:06.621Z,27.03
2024-01-20T07:08:06.614Z,26.85
2024-01-20T07:09:06.730Z,27.02
2024-01-20T07:10:06.635Z,26.99
2024-01-20T07:11:06.655Z,27.00
2024-01-20T07:12:06.668Z,26.87
2024-01-20T07:13:06.678Z,26.95
2024-01-20T07:14:06.741Z,27.03
2024-01-20T07:15:07.067Z,26.99
2024-01-20T07:16:06.708Z,26.91
2024-01-20T07:17:06.740Z,26.99
2024-01-20T07:18:06.833Z,27.11
2024-01-20T07:19:06.781Z,27.07
2024-01-20T07:20:06.779Z,26.93
2024-01-20T07:21:06.818Z,26.78
2024-01-20T07:22:06.886Z,26.90
2024-01-20T07:23:06.844Z,26.96
2024-01-20T07:24:06.922Z,26.87
2024-01-20T07:25:06.890Z,26.87
2024-01-20T07:26:06.923Z,26.98
2024-01-20T07:27:06.965Z,26.98
2024-01-20T07:28:07.058Z,26.87
2024-01-20T07:29:07.006Z,26.98
2024-01-20T07:30:07.074Z,27.00
2024-01-20T07:31:07.058Z,26.93
2024-01-20T07:32:07.100Z,26.91
2024-01-20T07:33:07.172Z,27.03
2024-01-20T07:34:07.209Z,27.03
2024-01-20T07:35:07.167Z,26.96
2024-01-20T07:36:07.224Z,26.85
2024-01-20T07:37:07.234Z,26.98
2024-01-20T07:38:07.272Z,26.98
2024-01-20T07:39:07.287Z,26.89
2024-01-20T07:40:07.294Z,26.78
2024-01-20T07:41:07.322Z,26.95
2024-01-20T07:42:07.379Z,26.98
2024-01-20T07:43:07.373Z,26.92
2024-01-20T07:44:07.405Z,26.74
2024-01-20T07:45:07.441Z,26.91
2024-01-20T07:46:07.446Z,27.02
2024-01-20T07:47:07.476Z,27.07
2024-01-20T07:48:07.622Z,26.98
2024-01-20T07:49:07.622Z,26.84
2024-01-20T07:50:07.654Z,26.96
2024-01-20T07:51:07.622Z,26.95
2024-01-20T07:52:07.608Z,26.85
2024-01-20T07:53:07.632Z,26.84
2024-01-20T07:54:07.731Z,26.90
2024-01-20T07:55:07.674Z,26.85
2024-01-20T07:56:07.693Z,26.82
2024-01-20T07:57:07.747Z,26.95
2024-01-20T07:58:07.764Z,26.92
2024-01-20T07:59:07.784Z,26.87
2024-01-20T08:00:07.851Z,26.81
2024-01-20T08:01:07.897Z,26.88
2024-01-20T08:02:07.866Z,26.97
2024-01-20T08:03:07.951Z,26.82
2024-01-20T08:04:07.969Z,26.78
2024-01-20T08:05:07.928Z,26.97
2024-01-20T08:06:08.027Z,27.02
2024-01-20T08:07:08.067Z,27.00
2024-01-20T08:08:07.990Z,26.89
2024-01-20T08:09:08.116Z,26.92
2024-01-20T08:10:08.060Z,26.99
2024-01-20T08:11:08.076Z,26.92
2024-01-20T08:12:08.125Z,26.81
2024-01-20T08:13:08.135Z,26.88
2024-01-20T08:14:08.134Z,27.00
2024-01-20T08:15:08.172Z,27.02
2024-01-20T08:16:08.178Z,27.00
2024-01-20T08:17:08.199Z,26.82
2024-01-20T08:18:08.327Z,26.87
2024-01-20T08:19:08.362Z,26.92
2024-01-20T08:20:08.258Z,26.93
2024-01-20T08:21:08.392Z,26.81
2024-01-20T08:22:08.302Z,26.85
2024-01-20T08:23:08.317Z,26.98
2024-01-20T08:24:08.366Z,26.84
2024-01-20T08:25:08.451Z,26.84
2024-01-20T08:26:08.426Z,26.88
2024-01-20T08:27:08.466Z,26.87
2024-01-20T08:28:08.443Z,26.89
2024-01-20T08:29:08.477Z,27.04
2024-01-20T08:30:08.678Z,27.09
2024-01-20T08:31:08.726Z,26.96
2024-01-20T08:32:08.569Z,26.82
2024-01-20T08:33:09.406Z,26.88
2024-01-20T08:34:08.839Z,27.02
2024-01-20T08:35:08.642Z,27.10
2024-01-20T08:36:08.735Z,27.07
2024-01-20T08:37:08.706Z,26.96
2024-01-20T08:38:08.716Z,26.96
2024-01-20T08:39:08.748Z,27.07
2024-01-20T08:40:08.761Z,27.06
2024-01-20T08:41:08.800Z,27.03
2024-01-20T08:42:08.851Z,26.90
2024-01-20T08:43:08.805Z,27.00
2024-01-20T08:44:08.833Z,27.09
2024-01-20T08:45:08.868Z,27.06
2024-01-20T08:46:10.042Z,26.91
2024-01-20T08:47:08.897Z,26.88
2024-01-20T08:48:08.943Z,27.05
2024-01-20T08:49:09.820Z,27.01
2024-01-20T08:50:08.997Z,26.85
2024-01-20T08:51:09.061Z,26.85
2024-01-20T08:52:09.029Z,27.05
2024-01-20T08:53:09.075Z,27.06
2024-01-20T08:54:09.120Z,27.02
2024-01-20T08:55:09.126Z,26.90
2024-01-20T08:56:09.138Z,26.96
2024-01-20T08:57:09.176Z,27.11
2024-01-20T08:58:09.208Z,27.16
2024-01-20T08:59:09.222Z,27.11
2024-01-20T09:00:09.305Z,26.91
2024-01-20T09:01:09.280Z,26.84
2024-01-20T09:02:09.272Z,27.10
2024-01-20T09:03:09.359Z,27.05
2024-01-20T09:04:09.445Z,26.90
2024-01-20T09:05:09.333Z,26.85
2024-01-20T09:06:09.393Z,27.03
2024-01-20T09:07:09.380Z,27.09
2024-01-20T09:08:09.343Z,27.03
2024-01-20T09:09:09.380Z,26.85
2024-01-20T09:10:09.362Z,26.88
2024-01-20T09:11:09.388Z,26.99
2024-01-20T09:12:09.400Z,26.92
2024-01-20T09:13:09.391Z,26.81
2024-01-20T09:14:09.442Z,26.77
2024-01-20T09:15:09.487Z,26.92
2024-01-20T09:16:09.516Z,26.99
2024-01-20T09:17:09.434Z,26.91
2024-01-20T09:18:09.693Z,26.80
2024-01-20T09:19:09.637Z,26.77
2024-01-20T09:20:09.560Z,26.95
2024-01-20T09:21:09.508Z,26.99
2024-01-20T09:22:09.495Z,26.92
2024-01-20T09:23:09.532Z,26.70
2024-01-20T09:24:09.570Z,26.85
2024-01-20T09:25:09.721Z,26.96
2024-01-20T09:26:09.557Z,26.88
2024-01-20T09:27:09.586Z,26.84
2024-01-20T09:28:09.558Z,26.71
2024-01-20T09:29:09.595Z,26.81
2024-01-20T09:30:09.645Z,26.88
2024-01-20T09:31:09.577Z,26.82
2024-01-20T09:32:09.617Z,26.63
2024-01-20T09:33:09.732Z,26.84
2024-01-20T09:34:09.686Z,26.93
2024-01-20T09:35:09.663Z,26.97
2024-01-20T09:36:09.669Z,26.79
2024-01-20T09:37:12.014Z,26.71
2024-01-20T09:38:09.665Z,26.85
2024-01-20T09:39:09.675Z,26.90
2024-01-20T09:40:09.658Z,26.97
2024-01-20T09:41:09.671Z,26.86
2024-01-20T09:42:09.703Z,26.74
2024-01-20T09:43:09.676Z,26.84
2024-01-20T09:44:09.672Z,26.90
2024-01-20T09:45:09.709Z,26.86
2024-01-20T09:46:09.703Z,26.77
2024-01-20T09:47:09.690Z,26.73
2024-01-20T09:48:09.844Z,26.85
2024-01-20T09:49:09.723Z,26.89
2024-01-20T09:50:09.675Z,26.88
2024-01-20T09:51:09.699Z,26.68
2024-01-20T09:52:09.689Z,26.75
2024-01-20T09:53:09.678Z,26.84
2024-01-20T09:54:09.714Z,26.84
2024-01-20T09:55:09.684Z,26.71
2024-01-20T09:56:09.690Z,26.66
2024-01-20T09:57:09.703Z,26.77
2024-01-20T09:58:09.700Z,26.88
2024-01-20T09:59:09.686Z,26.87
2024-01-20T10:00:09.793Z,26.67
2024-01-20T10:01:09.745Z,26.64
2024-01-20T10:02:09.714Z,26.78
2024-01-20T10:03:10.706Z,26.79
2024-01-20T10:04:09.732Z,26.82
2024-01-20T10:05:09.752Z,26.66
2024-01-20T10:06:09.707Z,26.49
2024-01-20T10:07:09.698Z,26.74
2024-01-20T10:08:09.697Z,26.87
2024-01-20T10:09:09.721Z,26.88
2024-01-20T10:10:09.694Z,26.75
2024-01-20T10:11:09.712Z,26.67
2024-01-20T10:12:09.810Z,26.73
2024-01-20T10:13:09.720Z,26.84
2024-01-20T10:14:09.711Z,26.82
2024-01-20T10:15:09.731Z,26.73
2024-01-20T10:16:09.709Z,26.59
2024-01-20T10:17:09.701Z,26.78
2024-01-20T10:18:10.177Z,26.78
2024-01-20T10:19:09.712Z,26.62
2024-01-20T10:20:09.808Z,26.68
2024-01-20T10:21:09.765Z,26.68
2024-01-20T10:22:09.780Z,26.71
2024-01-20T10:23:09.813Z,26.56
2024-01-20T10:24:09.826Z,26.63
2024-01-20T10:25:09.818Z,26.77
2024-01-20T10:26:09.835Z,26.78
2024-01-20T10:27:09.914Z,26.54
2024-01-20T10:28:09.860Z,26.60
2024-01-20T10:29:09.885Z,26.69
2024-01-20T10:30:09.914Z,26.72
2024-01-20T10:31:10.165Z,26.64
2024-01-20T10:32:09.910Z,26.54
2024-01-20T10:33:11.190Z,26.66
2024-01-20T10:34:10.208Z,26.76
2024-01-20T10:35:10.125Z,26.64
2024-01-20T10:36:10.094Z,26.64
2024-01-20T10:37:10.077Z,26.82
2024-01-20T10:38:10.141Z,26.80
2024-01-20T10:39:10.121Z,26.68
2024-01-20T10:40:10.116Z,26.66
2024-01-20T10:41:10.142Z,26.82
2024-01-20T10:42:10.199Z,26.89
2024-01-20T10:43:10.155Z,26.89
2024-01-20T10:44:10.171Z,26.72
2024-01-20T10:45:10.193Z,26.69
2024-01-20T10:46:10.173Z,26.81
2024-01-20T10:47:10.186Z,26.94
2024-01-20T10:48:12.124Z,26.91
2024-01-20T10:49:10.328Z,26.82
2024-01-20T10:50:10.241Z,26.69
2024-01-20T10:51:10.372Z,26.76
2024-01-20T10:52:10.267Z,26.87
2024-01-20T10:53:10.220Z,26.91
2024-01-20T10:54:10.441Z,26.72
2024-01-20T10:55:10.223Z,26.72
2024-01-20T10:56:10.215Z,26.89
2024-01-20T10:57:10.246Z,26.90
2024-01-20T10:58:10.229Z,26.77
2024-01-20T10:59:10.226Z,26.79
2024-01-20T11:00:10.248Z,26.89
2024-01-20T11:01:10.253Z,26.88
2024-01-20T11:02:10.231Z,26.80
2024-01-20T11:03:10.316Z,26.79
2024-01-20T11:04:10.372Z,26.95
2024-01-20T11:05:10.234Z,26.88
2024-01-20T11:06:10.287Z,26.80
2024-01-20T11:07:10.230Z,26.79
2024-01-20T11:08:10.232Z,26.93
2024-01-20T11:09:10.243Z,26.96
2024-01-20T11:10:10.242Z,26.99
2024-01-20T11:11:10.245Z,26.85
2024-01-20T11:12:10.326Z,26.83
2024-01-20T11:13:10.258Z,26.98
2024-01-20T11:14:10.250Z,27.02
2024-01-20T11:15:10.286Z,26.96
2024-01-20T11:16:10.250Z,26.80
2024-01-20T11:17:10.257Z,26.92
2024-01-20T11:18:10.294Z,26.88
2024-01-20T11:19:10.329Z,26.77
2024-01-20T11:20:10.263Z,26.87
2024-01-20T11:21:10.314Z,27.01
2024-01-20T11:22:10.289Z,27.02
2024-01-20T11:23:10.264Z,27.02
2024-01-20T11:24:12.064Z,26.84
2024-01-20T11:25:10.278Z,26.81
2024-01-20T11:26:10.279Z,26.92
2024-01-20T11:27:10.331Z,27.03
2024-01-20T11:28:10.272Z,26.96
2024-01-20T11:29:10.273Z,26.93
2024-01-20T11:30:10.311Z,26.85
2024-01-20T11:31:10.272Z,26.96
2024-01-20T11:32:10.278Z,26.99
2024-01-20T11:33:10.384Z,26.95
2024-01-20T11:34:10.385Z,26.86
2024-01-20T11:35:10.290Z,26.90
2024-01-20T11:36:10.292Z,27.00
2024-01-20T11:37:10.284Z,27.03
2024-01-20T11:38:10.314Z,26.89
2024-01-20T11:39:10.310Z,26.93
2024-01-20T11:40:10.295Z,26.93
2024-01-20T11:41:10.294Z,26.89
2024-01-20T11:42:11.714Z,27.03
2024-01-20T11:43:10.295Z,27.13
2024-01-20T11:44:10.292Z,27.15
2024-01-20T11:45:10.350Z,27.01
2024-01-20T11:46:10.289Z,26.92
2024-01-20T11:47:10.284Z,27.01
2024-01-20T11:48:13.803Z,27.08
2024-01-20T11:49:10.415Z,27.09
2024-01-20T11:50:10.328Z,26.89
2024-01-20T11:51:10.312Z,26.90
2024-01-20T11:52:10.289Z,27.11
2024-01-20T11:53:10.297Z,27.10
2024-01-20T11:54:12.199Z,27.06
2024-01-20T11:55:10.297Z,27.13
2024-01-20T11:56:10.325Z,27.13
2024-01-20T11:57:10.329Z,27.11
2024-01-20T11:58:10.316Z,26.90
2024-01-20T11:59:10.310Z,27.04
2024-01-20T12:00:12.211Z,27.17
2024-01-20T12:01:10.503Z,27.17
2024-01-20T12:02:10.311Z,26.92
2024-01-20T12:03:10.338Z,27.15
2024-01-20T12:04:10.319Z,27.29
2024-01-20T12:05:15.983Z,27.27
2024-01-20T12:06:13.027Z,27.20
2024-01-20T12:07:10.403Z,27.03
2024-01-20T12:08:10.317Z,27.03
2024-01-20T12:09:10.343Z,27.20
2024-01-20T12:10:10.341Z,27.22
2024-01-20T12:11:10.317Z,27.03
2024-01-20T12:12:10.335Z,26.92
2024-01-20T12:13:10.323Z,27.01
2024-01-20T12:14:10.321Z,27.15
2024-01-20T12:15:10.381Z,26.96
2024-01-20T12:16:10.321Z,27.11
2024-01-20T12:17:10.323Z,27.24
2024-01-20T12:18:10.439Z,27.22
2024-01-20T12:19:10.440Z,27.10
2024-01-20T12:20:10.331Z,27.22
2024-01-20T12:21:10.408Z,27.37
2024-01-20T12:22:10.324Z,27.31
2024-01-20T12:23:10.333Z,27.09
2024-01-20T12:24:10.364Z,27.09
2024-01-20T12:25:10.335Z,27.34
2024-01-20T12:26:10.362Z,27.31
2024-01-20T12:27:10.351Z,27.05
2024-01-20T12:28:10.327Z,27.09
2024-01-20T12:29:10.333Z,27.27
2024-01-20T12:30:10.339Z,27.30
2024-01-20T12:31:12.059Z,27.17
2024-01-20T12:32:10.331Z,27.17
2024-01-20T12:33:10.633Z,27.24
2024-01-20T12:34:10.401Z,27.20
2024-01-20T12:35:10.353Z,27.13
2024-01-20T12:36:10.372Z,27.23
2024-01-20T12:37:10.346Z,27.27
2024-01-20T12:38:10.347Z,27.20
2024-01-20T12:39:10.417Z,27.05
2024-01-20T12:40:10.347Z,27.20
2024-01-20T12:41:10.348Z,27.28
2024-01-20T12:42:10.409Z,27.22
2024-01-20T12:43:10.349Z,27.17
2024-01-20T12:44:10.363Z,27.21
2024-01-20T12:45:10.397Z,27.21
2024-01-20T12:46:10.357Z,27.13
2024-01-20T12:47:10.356Z,27.27
2024-01-20T12:48:10.534Z,27.33
2024-01-20T12:49:10.412Z,27.31
2024-01-20T12:50:10.415Z,27.16
2024-01-20T12:51:10.406Z,27.20
2024-01-20T12:52:10.368Z,27.28
2024-01-20T12:53:10.373Z,27.31
2024-01-20T12:54:10.416Z,27.36
2024-01-20T12:55:10.369Z,27.22
2024-01-20T12:56:10.371Z,27.23
2024-01-20T12:57:10.401Z,27.27
2024-01-20T12:58:10.406Z,27.18
2024-01-20T12:59:10.370Z,27.36
2024-01-20T13:00:10.409Z,27.45
2024-01-20T13:01:10.418Z,27.47
2024-01-20T13:02:10.380Z,27.36
2024-01-20T13:03:10.407Z,27.22
2024-01-20T13:04:10.409Z,27.30
2024-01-20T13:05:10.618Z,27.30
2024-01-20T13:06:10.571Z,27.23
2024-01-20T13:07:13.992Z,27.05
2024-01-20T13:08:10.566Z,27.22
2024-01-20T13:09:10.603Z,27.25
2024-01-20T13:10:10.611Z,27.18
2024-01-20T13:11:10.594Z,27.15
2024-01-20T13:12:10.610Z,27.23
2024-01-20T13:13:10.613Z,27.22
2024-01-20T13:14:10.760Z,27.05
2024-01-20T13:15:10.737Z,27.15
2024-01-20T13:16:10.722Z,27.27
2024-01-20T13:17:10.656Z,27.28
2024-01-20T13:18:10.722Z,27.16
2024-01-20T13:19:10.739Z,27.04
2024-01-20T13:20:10.769Z,27.19
2024-01-20T13:21:10.695Z,27.31
2024-01-20T13:22:10.697Z,27.27
2024-01-20T13:23:10.716Z,27.18
2024-01-20T13:24:10.726Z,27.05
2024-01-20T13:25:10.727Z,27.15
2024-01-20T13:26:10.737Z,27.22
2024-01-20T13:27:10.779Z,27.15
2024-01-20T13:28:10.800Z,27.05
2024-01-20T13:29:10.806Z,27.19
2024-01-20T13:30:10.890Z,27.18
2024-01-20T13:31:10.828Z,27.07
2024-01-20T13:32:10.863Z,27.15
2024-01-20T13:33:10.948Z,27.16
2024-01-20T13:34:11.039Z,27.22
2024-01-20T13:35:10.872Z,27.12
2024-01-20T13:36:10.905Z,27.03
2024-01-20T13:37:10.888Z,27.14
2024-01-20T13:38:10.907Z,27.20
2024-01-20T13:39:11.035Z,27.15
2024-01-20T13:40:11.078Z,27.10
2024-01-20T13:41:10.996Z,27.20
2024-01-20T13:42:11.095Z,27.16